createdAt,value
2022-11-10T00:00:40.763Z,4.00
2022-11-10T00:03:28.722Z,4.00
2022-11-10T00:06:14.119Z,4.00
2022-11-10T00:08:59.703Z,4.00
2022-11-10T00:11:46.105Z,4.10
2022-11-10T00:14:49.882Z,4.10
2022-11-10T00:17:36.985Z,4.20
2022-11-10T00:20:22.955Z,4.10
2022-11-10T00:23:08.780Z,4.20
2022-11-10T00:25:54.486Z,4.00
2022-11-10T00:28:43.872Z,4.00
2022-11-10T00:31:31.986Z,3.80
2022-11-10T00:34:17.688Z,3.80
2022-11-10T00:37:03.671Z,3.70
2022-11-10T00:39:50.285Z,3.80
2022-11-10T00:42:36.049Z,3.80
2022-11-10T00:45:21.320Z,3.70
2022-11-10T00:48:07.033Z,3.70
2022-11-10T00:50:52.580Z,3.80
2022-11-10T00:53:38.144Z,3.70
2022-11-10T00:56:24.651Z,3.70
2022-11-10T00:59:09.817Z,3.60
2022-11-10T01:01:55.308Z,3.50
2022-11-10T01:04:40.771Z,3.50
2022-11-10T01:07:26.236Z,3.50
2022-11-10T01:10:11.713Z,3.40
2022-11-10T01:12:57.506Z,3.50
2022-11-10T01:15:43.682Z,3.50
2022-11-10T01:18:29.779Z,3.50
2022-11-10T01:21:15.246Z,3.40
2022-11-10T01:24:01.023Z,3.40
2022-11-10T01:26:46.294Z,3.40
2022-11-10T01:29:32.086Z,3.40
2022-11-10T01:32:17.496Z,3.40
2022-11-10T01:35:03.261Z,3.40
2022-11-10T01:37:48.673Z,3.40
2022-11-10T01:40:34.738Z,3.50
2022-11-10T01:43:21.094Z,3.40
2022-11-10T01:46:09.556Z,3.40
2022-11-10T01:48:59.979Z,3.30
2022-11-10T01:52:04.606Z,3.20
2022-11-10T01:54:50.531Z,3.10
2022-11-10T01:57:37.147Z,3.00
2022-11-10T02:00:23.026Z,3.00
2022-11-10T02:03:23.764Z,3.00
2022-11-10T02:06:11.215Z,2.90
2022-11-10T02:08:59.369Z,2.90
2022-11-10T02:11:46.156Z,2.90
2022-11-10T02:14:31.704Z,3.00
2022-11-10T02:17:17.414Z,3.10
2022-11-10T02:20:06.561Z,3.30
2022-11-10T02:22:52.244Z,3.40
2022-11-10T02:25:37.720Z,3.40
2022-11-10T02:28:23.612Z,3.40
2022-11-10T02:31:09.700Z,3.30
2022-11-10T02:33:54.994Z,3.40
2022-11-10T02:36:40.733Z,3.30
2022-11-10T02:39:26.004Z,3.40
2022-11-10T02:42:11.528Z,3.40
2022-11-10T02:44:57.813Z,3.40
2022-11-10T02:47:43.465Z,3.40
2022-11-10T02:50:28.788Z,3.40
2022-11-10T02:53:14.378Z,3.30
2022-11-10T02:55:59.757Z,3.30
2022-11-10T02:58:45.206Z,3.20
2022-11-10T03:01:30.910Z,3.20
2022-11-10T03:04:16.765Z,3.10
2022-11-10T03:07:02.283Z,3.10
2022-11-10T03:09:47.830Z,3.10
2022-11-10T03:12:33.918Z,3.10
2022-11-10T03:15:19.532Z,3.20
2022-11-10T03:18:05.838Z,3.20
2022-11-10T03:20:51.566Z,3.20
2022-11-10T03:23:37.877Z,3.20
2022-11-10T03:26:23.195Z,3.10
2022-11-10T03:29:08.768Z,3.00
2022-11-10T03:31:54.601Z,3.00
2022-11-10T03:34:40.312Z,3.10
2022-11-10T03:37:25.842Z,3.10
2022-11-10T03:40:11.736Z,3.20
2022-11-10T03:42:56.850Z,3.10
2022-11-10T03:45:45.041Z,3.00
2022-11-10T03:48:30.832Z,2.90
2022-11-10T03:51:16.201Z,2.90
2022-11-10T03:54:01.869Z,2.80
2022-11-10T03:56:47.221Z,2.70
2022-11-10T03:59:32.691Z,2.80
2022-11-10T04:02:18.390Z,2.90
2022-11-10T04:05:24.566Z,2.90
2022-11-10T04:08:34.893Z,3.10
2022-11-10T04:11:40.184Z,3.10
2022-11-10T04:14:44.099Z,3.10
2022-11-10T04:17:31.339Z,3.00
2022-11-10T04:20:17.245Z,2.90
2022-11-10T04:23:21.810Z,2.80
2022-11-10T04:26:28.653Z,2.70
2022-11-10T04:29:15.490Z,2.70
2022-11-10T04:32:01.062Z,2.60
2022-11-10T04:34:46.845Z,2.60
2022-11-10T04:37:32.295Z,2.70
2022-11-10T04:40:18.187Z,2.70
2022-11-10T04:43:03.572Z,2.70
2022-11-10T04:45:49.628Z,2.70
2022-11-10T04:48:35.886Z,2.70
2022-11-10T04:51:24.806Z,2.70
2022-11-10T04:54:11.758Z,2.70
2022-11-10T04:56:57.632Z,2.60
2022-11-10T04:59:43.277Z,2.60
2022-11-10T05:02:28.751Z,2.50
2022-11-10T05:05:14.496Z,2.60
2022-11-10T05:08:00.745Z,2.70
2022-11-10T05:10:46.201Z,2.70
2022-11-10T05:13:31.809Z,2.70
2022-11-10T05:16:17.529Z,2.70
2022-11-10T05:19:04.044Z,2.60
2022-11-10T05:21:49.214Z,2.60
2022-11-10T05:24:34.988Z,2.60
2022-11-10T05:27:20.827Z,2.60
2022-11-10T05:30:07.226Z,2.50
2022-11-10T05:32:52.817Z,2.60
2022-11-10T05:35:38.787Z,2.60
2022-11-10T05:38:24.888Z,2.60
2022-11-10T05:41:10.139Z,2.60
2022-11-10T05:43:55.608Z,2.60
2022-11-10T05:46:41.343Z,2.70
2022-11-10T05:49:27.937Z,2.60
2022-11-10T05:52:13.969Z,2.60
2022-11-10T05:54:59.256Z,2.60
2022-11-10T05:57:46.466Z,2.60
2022-11-10T06:00:33.248Z,2.60
2022-11-10T06:03:20.444Z,2.50
2022-11-10T06:06:06.240Z,2.50
2022-11-10T06:08:52.113Z,2.60
2022-11-10T06:11:37.255Z,2.50
2022-11-10T06:14:22.892Z,2.50
2022-11-10T06:17:08.539Z,2.60
2022-11-10T06:19:54.175Z,2.70
2022-11-10T06:22:40.104Z,2.70
2022-11-10T06:25:25.986Z,2.60
2022-11-10T06:28:12.233Z,2.60
2022-11-10T06:30:59.245Z,2.50
2022-11-10T06:33:44.761Z,2.60
2022-11-10T06:36:30.187Z,2.70
2022-11-10T06:39:15.867Z,2.80
2022-11-10T06:42:01.648Z,2.80
2022-11-10T06:44:47.161Z,2.70
2022-11-10T06:47:32.761Z,2.70
2022-11-10T06:50:18.649Z,2.70
2022-11-10T06:53:07.077Z,2.60
2022-11-10T06:55:52.739Z,2.80
2022-11-10T06:58:38.383Z,2.80
2022-11-10T07:01:26.722Z,2.80
2022-11-10T07:04:20.796Z,2.70
2022-11-10T07:07:06.718Z,2.60
2022-11-10T07:09:52.263Z,2.70
2022-11-10T07:12:37.695Z,2.60
2022-11-10T07:15:23.289Z,2.60
2022-11-10T07:18:08.621Z,2.60
2022-11-10T07:20:54.169Z,2.70
2022-11-10T07:23:39.855Z,2.70
2022-11-10T07:26:25.135Z,2.70
2022-11-10T07:29:10.794Z,2.70
2022-11-10T07:31:56.542Z,2.70
2022-11-10T07:34:42.048Z,2.70
2022-11-10T07:37:27.821Z,2.70
2022-11-10T07:40:13.400Z,2.80
2022-11-10T07:42:59.399Z,2.70
2022-11-10T07:45:45.261Z,2.70
2022-11-10T07:48:30.945Z,2.60
2022-11-10T07:51:19.137Z,2.60
2022-11-10T07:54:04.947Z,2.70
2022-11-10T07:56:50.314Z,2.60
2022-11-10T07:59:35.611Z,2.60
2022-11-10T08:02:21.584Z,2.60
2022-11-10T08:05:07.367Z,2.60
2022-11-10T08:07:53.495Z,2.80
2022-11-10T08:10:40.922Z,2.70
2022-11-10T08:13:26.335Z,2.80
2022-11-10T08:16:11.712Z,2.80
2022-11-10T08:18:57.518Z,2.90
2022-11-10T08:21:43.386Z,3.00
2022-11-10T08:24:28.595Z,3.00
2022-11-10T08:27:13.928Z,3.00
2022-11-10T08:29:59.670Z,3.00
2022-11-10T08:32:45.003Z,3.10
2022-11-10T08:35:32.575Z,3.10
2022-11-10T08:38:23.475Z,3.20
2022-11-10T08:41:09.094Z,3.10
2022-11-10T08:43:54.965Z,3.20
2022-11-10T08:46:40.622Z,3.20
2022-11-10T08:49:25.847Z,3.20
2022-11-10T08:52:12.120Z,3.30
2022-11-10T08:54:57.558Z,3.30
2022-11-10T08:57:43.013Z,3.40
2022-11-10T09:00:30.220Z,3.30
2022-11-10T09:03:17.219Z,3.30
2022-11-10T09:06:03.425Z,3.30
2022-11-10T09:08:49.010Z,3.40
2022-11-10T09:11:34.473Z,3.40
2022-11-10T09:14:21.086Z,3.40
2022-11-10T09:17:06.867Z,3.50
2022-11-10T09:19:55.232Z,3.60
2022-11-10T09:22:40.711Z,3.50
2022-11-10T09:25:26.594Z,3.70
2022-11-10T09:28:14.172Z,3.80
2022-11-10T09:30:59.914Z,3.70
2022-11-10T09:33:45.315Z,3.70
2022-11-10T09:36:31.095Z,3.70
2022-11-10T09:39:16.878Z,3.70
2022-11-10T09:42:04.436Z,3.80
2022-11-10T09:45:14.853Z,3.80
2022-11-10T09:48:25.752Z,3.80
2022-11-10T09:51:36.199Z,3.80
2022-11-10T09:54:44.115Z,3.80
2022-11-10T09:57:29.703Z,3.80
2022-11-10T10:00:17.127Z,3.90
2022-11-10T10:03:04.845Z,4.00
2022-11-10T10:06:05.754Z,4.10
2022-11-10T10:09:00.771Z,4.10
2022-11-10T10:12:00.980Z,4.10
2022-11-10T10:14:58.400Z,4.20
2022-11-10T10:18:05.312Z,4.20
2022-11-10T10:21:12.046Z,4.20
2022-11-10T10:24:12.591Z,4.20
2022-11-10T10:27:06.764Z,4.40
2022-11-10T10:29:53.339Z,4.40
2022-11-10T10:32:39.094Z,4.50
2022-11-10T10:35:24.979Z,4.50
2022-11-10T10:38:20.885Z,4.70
2022-11-10T10:41:34.730Z,4.70
2022-11-10T10:44:20.623Z,4.80
2022-11-10T10:47:06.117Z,4.80
2022-11-10T10:49:51.750Z,4.80
2022-11-10T10:52:37.198Z,4.90
2022-11-10T10:55:29.243Z,5.00
2022-11-10T10:58:33.242Z,5.00
2022-11-10T11:01:33.015Z,5.10
2022-11-10T11:04:31.557Z,5.10
2022-11-10T11:07:24.087Z,5.20
2022-11-10T11:10:48.435Z,5.10
2022-11-10T11:13:34.075Z,5.10
2022-11-10T11:16:19.573Z,5.20
2022-11-10T11:19:05.844Z,5.20
2022-11-10T11:22:26.543Z,5.20
2022-11-10T11:25:34.801Z,5.30
2022-11-10T11:29:04.577Z,5.40
2022-11-10T11:31:58.969Z,5.40
2022-11-10T11:34:50.907Z,5.40
2022-11-10T11:37:47.501Z,5.50
2022-11-10T11:40:57.730Z,5.60
2022-11-10T11:44:10.198Z,5.60
2022-11-10T11:46:58.789Z,5.70
2022-11-10T11:50:10.545Z,5.80
2022-11-10T11:53:25.329Z,5.80
2022-11-10T11:56:20.905Z,5.80
2022-11-10T11:59:30.553Z,5.90
2022-11-10T12:02:41.480Z,6.00
2022-11-10T12:05:36.966Z,6.00
2022-11-10T12:08:54.088Z,6.00
2022-11-10T12:11:52.165Z,6.00
2022-11-10T12:14:58.868Z,6.00
2022-11-10T12:17:50.310Z,6.10
2022-11-10T12:21:05.174Z,6.30
2022-11-10T12:23:53.464Z,6.70
2022-11-10T12:26:42.822Z,7.00
2022-11-10T12:29:48.470Z,7.20
2022-11-10T12:32:56.696Z,7.30
2022-11-10T12:35:43.876Z,7.50
2022-11-10T12:38:59.492Z,7.50
2022-11-10T12:42:00.096Z,7.70
2022-11-10T12:45:00.266Z,7.80
2022-11-10T12:47:46.966Z,7.90
2022-11-10T12:50:38.683Z,8.00
2022-11-10T12:53:51.814Z,8.00
2022-11-10T12:56:59.072Z,8.10
2022-11-10T12:59:59.348Z,8.20
2022-11-10T13:02:46.814Z,8.20
2022-11-10T13:05:37.696Z,8.30
2022-11-10T13:08:35.561Z,8.40
2022-11-10T13:11:25.697Z,8.50
2022-11-10T13:14:24.778Z,8.50
2022-11-10T13:17:30.764Z,8.50
2022-11-10T13:20:54.268Z,8.50
2022-11-10T13:23:42.897Z,8.60
2022-11-10T13:26:40.440Z,8.60
2022-11-10T13:29:47.431Z,8.70
2022-11-10T13:32:36.428Z,8.70
2022-11-10T13:35:30.885Z,8.80
2022-11-10T13:38:37.612Z,8.80
2022-11-10T13:41:25.792Z,8.80
2022-11-10T13:44:27.938Z,8.90
2022-11-10T13:47:34.977Z,8.90
2022-11-10T13:50:35.899Z,8.90
2022-11-10T13:53:55.742Z,9.00
2022-11-10T13:57:11.728Z,9.00
2022-11-10T14:00:18.611Z,9.10
2022-11-10T14:03:28.729Z,9.10
2022-11-10T14:06:21.713Z,9.20
2022-11-10T14:09:41.060Z,9.20
2022-11-10T14:12:39.408Z,9.20
2022-11-10T14:15:37.454Z,9.20
2022-11-10T14:18:28.530Z,9.20
2022-11-10T14:21:40.120Z,9.30
2022-11-10T14:24:38.317Z,9.30
2022-11-10T14:27:33.501Z,9.30
2022-11-10T14:30:26.559Z,9.40
2022-11-10T14:33:14.625Z,9.40
2022-11-10T14:36:01.943Z,9.40
2022-11-10T14:38:47.689Z,9.50
2022-11-10T14:41:33.718Z,9.60
2022-11-10T14:44:27.621Z,9.50
2022-11-10T14:47:31.870Z,9.50
2022-11-10T14:50:18.945Z,9.50
2022-11-10T14:53:21.570Z,9.60
2022-11-10T14:56:16.067Z,9.60
2022-11-10T14:59:04.622Z,9.60
2022-11-10T15:02:01.574Z,9.60
2022-11-10T15:04:50.818Z,9.60
2022-11-10T15:07:36.380Z,9.70
2022-11-10T15:10:46.512Z,9.70
2022-11-10T15:13:33.282Z,9.70
2022-11-10T15:16:36.679Z,9.70
2022-11-10T15:19:30.770Z,9.70
2022-11-10T15:22:30.847Z,9.80
2022-11-10T15:25:19.951Z,9.80
2022-11-10T15:28:12.721Z,9.80
2022-11-10T15:31:00.614Z,9.80
2022-11-10T15:33:49.675Z,9.80
2022-11-10T15:36:41.078Z,9.80
2022-11-10T15:39:27.936Z,9.80
2022-11-10T15:42:24.757Z,9.80
2022-11-10T15:45:10.545Z,9.80
2022-11-10T15:47:56.229Z,9.70
2022-11-10T15:50:44.236Z,9.70
2022-11-10T15:53:37.380Z,9.60
2022-11-10T15:56:25.374Z,9.60
2022-11-10T15:59:11.491Z,9.60
2022-11-10T16:01:57.504Z,9.50
2022-11-10T16:04:42.982Z,9.50
2022-11-10T16:07:28.216Z,9.50
2022-11-10T16:10:13.822Z,9.50
2022-11-10T16:12:59.885Z,9.50
2022-11-10T16:15:48.317Z,9.50
2022-11-10T16:18:33.797Z,9.50
2022-11-10T16:21:22.239Z,9.50
2022-11-10T16:24:08.306Z,9.60
2022-11-10T16:26:54.138Z,9.60
2022-11-10T16:29:40.222Z,9.60
2022-11-10T16:32:25.483Z,9.70
2022-11-10T16:35:14.474Z,9.80
2022-11-10T16:37:59.879Z,9.80
2022-11-10T16:40:53.191Z,9.80
2022-11-10T16:43:38.776Z,9.80
2022-11-10T16:46:30.225Z,9.80
2022-11-10T16:49:23.147Z,9.80
2022-11-10T16:52:14.640Z,9.90
2022-11-10T16:54:59.971Z,9.90
2022-11-10T16:57:45.721Z,10.00
2022-11-10T17:00:32.227Z,10.00
2022-11-10T17:03:30.069Z,10.10
2022-11-10T17:06:16.522Z,10.10
2022-11-10T17:09:08.742Z,10.20
2022-11-10T17:11:54.289Z,10.30
2022-11-10T17:14:39.981Z,10.30
2022-11-10T17:17:25.524Z,10.30
2022-11-10T17:20:42.332Z,10.30
2022-11-10T17:23:28.276Z,10.30
2022-11-10T17:26:16.274Z,10.40
2022-11-10T17:29:01.838Z,10.40
2022-11-10T17:31:50.351Z,10.50
2022-11-10T17:34:35.812Z,10.50
2022-11-10T17:37:21.604Z,10.60
2022-11-10T17:40:20.107Z,10.60
2022-11-10T17:43:05.785Z,10.70
2022-11-10T17:45:51.830Z,10.70
2022-11-10T17:48:37.325Z,10.70
2022-11-10T17:51:23.596Z,10.70
2022-11-10T17:54:15.858Z,10.80
2022-11-10T17:57:01.416Z,10.80
2022-11-10T17:59:47.137Z,10.80
2022-11-10T18:02:32.448Z,10.80
2022-11-10T18:05:18.692Z,10.80
2022-11-10T18:08:04.666Z,10.80
2022-11-10T18:10:52.246Z,10.90
2022-11-10T18:13:38.449Z,10.90
2022-11-10T18:16:24.067Z,10.90
2022-11-10T18:19:11.295Z,10.80
2022-11-10T18:21:56.702Z,10.90
2022-11-10T18:24:42.706Z,10.90
2022-11-10T18:27:28.969Z,10.90
2022-11-10T18:30:15.066Z,10.90
2022-11-10T18:33:05.281Z,10.90
2022-11-10T18:35:50.422Z,10.90
2022-11-10T18:38:36.192Z,11.00
2022-11-10T18:41:39.893Z,10.90
2022-11-10T18:44:26.365Z,10.90
2022-11-10T18:47:13.182Z,11.00
2022-11-10T18:49:58.894Z,10.90
2022-11-10T18:52:45.056Z,11.00
2022-11-10T18:55:30.774Z,11.00
2022-11-10T18:58:15.967Z,11.00
2022-11-10T19:01:06.576Z,11.00
2022-11-10T19:03:52.180Z,11.10
2022-11-10T19:06:38.034Z,11.10
2022-11-10T19:09:23.224Z,11.10
2022-11-10T19:12:09.021Z,11.10
2022-11-10T19:14:54.476Z,11.10
2022-11-10T19:17:39.952Z,11.10
2022-11-10T19:20:25.749Z,11.20
2022-11-10T19:23:11.208Z,11.20
2022-11-10T19:26:22.133Z,11.20
2022-11-10T19:29:08.638Z,11.20
2022-11-10T19:31:54.298Z,11.20
2022-11-10T19:34:39.554Z,11.30
2022-11-10T19:37:25.272Z,11.30
2022-11-10T19:40:10.992Z,11.30
2022-11-10T19:42:56.426Z,11.30
2022-11-10T19:45:42.325Z,11.30
2022-11-10T19:48:27.915Z,11.30
2022-11-10T19:51:15.575Z,11.30
2022-11-10T19:54:02.878Z,11.30
2022-11-10T19:56:48.322Z,11.40
2022-11-10T19:59:34.072Z,11.40
2022-11-10T20:02:19.618Z,11.40
2022-11-10T20:05:16.257Z,11.50
2022-11-10T20:08:15.395Z,11.40
2022-11-10T20:11:03.303Z,11.50
2022-11-10T20:13:54.450Z,11.50
2022-11-10T20:16:40.930Z,11.60
2022-11-10T20:19:26.610Z,11.60
2022-11-10T20:22:12.898Z,11.60
2022-11-10T20:24:58.808Z,11.60
2022-11-10T20:27:44.694Z,11.60
2022-11-10T20:30:31.055Z,11.60
2022-11-10T20:33:16.710Z,11.70
2022-11-10T20:36:19.988Z,11.70
2022-11-10T20:39:06.287Z,11.70
2022-11-10T20:41:52.689Z,11.70
2022-11-10T20:44:38.803Z,11.70
2022-11-10T20:47:25.772Z,11.70
2022-11-10T20:50:16.231Z,11.70
2022-11-10T20:53:05.893Z,11.70
2022-11-10T20:56:00.917Z,11.70
2022-11-10T20:58:46.553Z,11.70
2022-11-10T21:01:33.655Z,11.70
2022-11-10T21:04:19.685Z,11.70
2022-11-10T21:07:05.367Z,11.70
2022-11-10T21:09:51.220Z,11.70
2022-11-10T21:12:52.020Z,11.70
2022-11-10T21:15:39.818Z,11.80
2022-11-10T21:18:30.891Z,11.80
2022-11-10T21:21:22.625Z,11.80
2022-11-10T21:24:09.432Z,11.90
2022-11-10T21:26:58.733Z,11.90
2022-11-10T21:29:44.295Z,11.90
2022-11-10T21:32:29.924Z,12.00
2022-11-10T21:35:15.977Z,12.00
2022-11-10T21:38:01.989Z,12.00
2022-11-10T21:40:47.876Z,12.00
2022-11-10T21:43:33.306Z,12.00
2022-11-10T21:46:19.272Z,12.10
2022-11-10T21:49:07.573Z,12.10
2022-11-10T21:51:53.839Z,12.10
2022-11-10T21:54:39.340Z,12.10
2022-11-10T21:57:25.213Z,12.10
2022-11-10T22:00:12.067Z,12.20
2022-11-10T22:03:02.175Z,12.10
2022-11-10T22:05:48.025Z,12.10
2022-11-10T22:08:33.784Z,12.20
2022-11-10T22:11:40.030Z,12.20
2022-11-10T22:14:44.022Z,12.20
2022-11-10T22:17:48.109Z,12.20
2022-11-10T22:20:33.520Z,12.20
2022-11-10T22:23:39.297Z,12.20
2022-11-10T22:26:24.846Z,12.20
2022-11-10T22:29:10.262Z,12.30
2022-11-10T22:31:55.862Z,12.30
2022-11-10T22:34:41.454Z,12.30
2022-11-10T22:37:33.101Z,12.30
2022-11-10T22:40:37.752Z,12.30
2022-11-10T22:43:41.991Z,12.30
2022-11-10T22:46:28.025Z,12.30
2022-11-10T22:49:15.136Z,12.30
2022-11-10T22:52:01.743Z,12.30
2022-11-10T22:54:47.067Z,12.30
2022-11-10T22:57:32.501Z,12.30
2022-11-10T23:00:18.164Z,12.40
2022-11-10T23:03:03.866Z,12.40
2022-11-10T23:05:56.449Z,12.40
2022-11-10T23:08:42.889Z,12.40
2022-11-10T23:11:30.701Z,12.40
2022-11-10T23:14:16.085Z,12.40
2022-11-10T23:17:04.336Z,12.40
2022-11-10T23:19:49.583Z,12.40
2022-11-10T23:22:34.896Z,12.40
2022-11-10T23:25:20.474Z,12.50
2022-11-10T23:28:06.148Z,12.50
2022-11-10T23:30:51.668Z,12.50
2022-11-10T23:33:38.813Z,12.50
2022-11-10T23:36:26.554Z,12.50
2022-11-10T23:39:13.687Z,12.60
2022-11-10T23:41:59.442Z,12.60
2022-11-10T23:44:44.929Z,12.60
2022-11-10T23:47:30.553Z,12.50
2022-11-10T23:50:16.560Z,12.60
2022-11-10T23:53:02.253Z,12.60
2022-11-10T23:56:05.634Z,12.60
2022-11-10T23:58:51.152Z,12.50
